createdAt,value
2015-09-30T00:00:00.371Z,74296
2015-09-30T00:00:12.777Z,74299
2015-09-30T00:00:25.168Z,74299
2015-09-30T00:00:36.856Z,74310
2015-09-30T00:00:49.244Z,74303
2015-09-30T00:01:01.650Z,74308
2015-09-30T00:01:14.041Z,74304
2015-09-30T00:01:26.432Z,74297
2015-09-30T00:01:38.838Z,74295
2015-09-30T00:01:51.245Z,74301
2015-09-30T00:02:04.120Z,74300
2015-09-30T00:02:16.542Z,74299
2015-09-30T00:02:29.198Z,74302
2015-09-30T00:02:41.589Z,74307
2015-09-30T00:02:53.982Z,74308
2015-09-30T00:03:06.388Z,74294
2015-09-30T00:03:18.778Z,74300
2015-09-30T00:03:31.185Z,74304
2015-09-30T00:03:43.608Z,74305
2015-09-30T00:03:56.029Z,74302
2015-09-30T00:04:08.436Z,74298
2015-09-30T00:04:20.826Z,74299
2015-09-30T00:04:33.217Z,74297
2015-09-30T00:04:45.687Z,74303
2015-09-30T00:04:58.077Z,74305
2015-09-30T00:05:10.484Z,74301
2015-09-30T00:05:22.890Z,74301
2015-09-30T00:05:35.296Z,74300
2015-09-30T00:05:47.720Z,74298
2015-09-30T00:06:00.142Z,74306
2015-09-30T00:06:12.564Z,74303
2015-09-30T00:06:24.954Z,74300
2015-09-30T00:06:37.345Z,74299
2015-09-30T00:06:49.738Z,74298
2015-09-30T00:07:02.113Z,74300
2015-09-30T00:07:13.800Z,74303
2015-09-30T00:07:26.206Z,74307
2015-09-30T00:07:38.613Z,74301
2015-09-30T00:07:51.036Z,74297
2015-09-30T00:08:03.458Z,74299
2015-09-30T00:08:15.865Z,74301
2015-09-30T00:08:28.255Z,74293
2015-09-30T00:08:40.974Z,74296
2015-09-30T00:08:53.366Z,74308
2015-09-30T00:09:05.756Z,74303
2015-09-30T00:09:18.147Z,74299
2015-09-30T00:09:30.553Z,74304
2015-09-30T00:09:42.959Z,74302
2015-09-30T00:09:55.369Z,74301
2015-09-30T00:10:07.806Z,74295
2015-09-30T00:10:20.197Z,74300
2015-09-30T00:10:32.587Z,74298
2015-09-30T00:10:44.995Z,74298
2015-09-30T00:10:57.401Z,74301
2015-09-30T00:11:09.791Z,74298
2015-09-30T00:11:22.182Z,74298
2015-09-30T00:11:34.604Z,74301
2015-09-30T00:11:47.013Z,74300
2015-09-30T00:11:59.419Z,74299
2015-09-30T00:12:11.826Z,74300
2015-09-30T00:12:24.232Z,74304
2015-09-30T00:12:36.623Z,74296
2015-09-30T00:12:49.015Z,74305
2015-09-30T00:13:01.406Z,74299
2015-09-30T00:13:13.812Z,74300
2015-09-30T00:13:26.218Z,74297
2015-09-30T00:13:38.640Z,74300
2015-09-30T00:13:51.065Z,74301
2015-09-30T00:14:03.487Z,74299
2015-09-30T00:14:15.174Z,74301
2015-09-30T00:14:27.581Z,74298
2015-09-30T00:14:39.971Z,74296
2015-09-30T00:14:52.381Z,74301
2015-09-30T00:15:04.756Z,74302
2015-09-30T00:15:17.240Z,74303
2015-09-30T00:15:29.646Z,74301
2015-09-30T00:15:42.068Z,74300
2015-09-30T00:15:54.477Z,74299
2015-09-30T00:16:06.884Z,74303
2015-09-30T00:16:19.274Z,74302
2015-09-30T00:16:31.680Z,74297
2015-09-30T00:16:44.087Z,74302
2015-09-30T00:16:56.480Z,74296
2015-09-30T00:17:08.871Z,74298
2015-09-30T00:17:21.277Z,74297
2015-09-30T00:17:33.683Z,74302
2015-09-30T00:17:45.387Z,74298
2015-09-30T00:17:57.826Z,74299
2015-09-30T00:18:10.217Z,74297
2015-09-30T00:18:22.623Z,74297
2015-09-30T00:18:35.014Z,74296
2015-09-30T00:18:47.406Z,74295
2015-09-30T00:18:59.797Z,74300
2015-09-30T00:19:12.187Z,74299
2015-09-30T00:19:24.594Z,74300
2015-09-30T00:19:37.000Z,74300
2015-09-30T00:19:49.409Z,74292
2015-09-30T00:20:01.128Z,74305
2015-09-30T00:20:13.550Z,74294
2015-09-30T00:20:25.972Z,74296
2015-09-30T00:20:38.362Z,74300
2015-09-30T00:20:50.756Z,74299
2015-09-30T00:21:02.443Z,74300
2015-09-30T00:21:14.834Z,74302
2015-09-30T00:21:27.225Z,74303
2015-09-30T00:21:39.631Z,74302
2015-09-30T00:21:52.040Z,74304
2015-09-30T00:22:04.493Z,74303
2015-09-30T00:22:16.931Z,74299
2015-09-30T00:22:29.321Z,74299
2015-09-30T00:22:41.712Z,74303
2015-09-30T00:22:54.089Z,74299
2015-09-30T00:23:05.792Z,74306
2015-09-30T00:23:18.183Z,74299
2015-09-30T00:23:29.870Z,74300
2015-09-30T00:23:42.277Z,74301
2015-09-30T00:23:54.701Z,74301
2015-09-30T00:24:07.123Z,74304
2015-09-30T00:24:19.545Z,74302
2015-09-30T00:24:32.264Z,74306
2015-09-30T00:24:44.655Z,74300
2015-09-30T00:24:57.048Z,74302
2015-09-30T00:25:09.439Z,74300
2015-09-30T00:25:21.829Z,74300
2015-09-30T00:25:34.220Z,74305
2015-09-30T00:25:46.611Z,74303
2015-09-30T00:25:59.020Z,74301
2015-09-30T00:26:11.426Z,74303
2015-09-30T00:26:23.848Z,74300
2015-09-30T00:26:36.239Z,74297
2015-09-30T00:26:48.631Z,74301
2015-09-30T00:27:01.022Z,74300
2015-09-30T00:27:13.663Z,74296
2015-09-30T00:27:26.069Z,74308
2015-09-30T00:27:38.459Z,74294
2015-09-30T00:27:50.853Z,74305
2015-09-30T00:28:03.259Z,74303
2015-09-30T00:28:14.962Z,74298
2015-09-30T00:28:27.369Z,74294
2015-09-30T00:28:39.806Z,74300
2015-09-30T00:28:52.230Z,74295
2015-09-30T00:29:04.668Z,74293
2015-09-30T00:29:17.105Z,74301
2015-09-30T00:29:29.496Z,74291
2015-09-30T00:29:41.886Z,74297
2015-09-30T00:29:54.297Z,74298
2015-09-30T00:30:06.687Z,74296
2015-09-30T00:30:19.078Z,74293
2015-09-30T00:30:31.468Z,74302
2015-09-30T00:30:43.156Z,74298
2015-09-30T00:30:55.549Z,74297
2015-09-30T00:31:07.955Z,74299
2015-09-30T00:31:20.361Z,74294
2015-09-30T00:31:32.767Z,74298
2015-09-30T00:31:45.189Z,74301
2015-09-30T00:31:57.614Z,74299
2015-09-30T00:32:10.052Z,74296
2015-09-30T00:32:21.786Z,74304
2015-09-30T00:32:34.208Z,74293
2015-09-30T00:32:46.630Z,74301
2015-09-30T00:32:58.350Z,74299
2015-09-30T00:33:10.757Z,74298
2015-09-30T00:33:23.163Z,74302
2015-09-30T00:33:35.554Z,74296
2015-09-30T00:33:47.944Z,74292
2015-09-30T00:34:00.353Z,74295
2015-09-30T00:34:12.744Z,74298
2015-09-30T00:34:25.135Z,74299
2015-09-30T00:34:37.557Z,74293
2015-09-30T00:34:49.947Z,74299
2015-09-30T00:35:02.356Z,74299
2015-09-30T00:35:14.622Z,74298
2015-09-30T00:35:26.341Z,74294
2015-09-30T00:35:38.747Z,74291
2015-09-30T00:35:51.169Z,74293
2015-09-30T00:36:03.578Z,74298
2015-09-30T00:36:15.969Z,74289
2015-09-30T00:36:28.219Z,74296
2015-09-30T00:36:40.625Z,74292
2015-09-30T00:36:53.016Z,74295
2015-09-30T00:37:05.409Z,74289
2015-09-30T00:37:17.831Z,74295
2015-09-30T00:37:30.222Z,74289
2015-09-30T00:37:42.612Z,74295
2015-09-30T00:37:55.034Z,74289
2015-09-30T00:38:07.458Z,74298
2015-09-30T00:38:19.864Z,74292
2015-09-30T00:38:32.286Z,74293
2015-09-30T00:38:44.708Z,74291
2015-09-30T00:38:57.130Z,74295
2015-09-30T00:39:09.571Z,74294
2015-09-30T00:39:21.992Z,74295
2015-09-30T00:39:34.399Z,74297
2015-09-30T00:39:46.071Z,74292
2015-09-30T00:39:58.477Z,74293
2015-09-30T00:40:10.870Z,74292
2015-09-30T00:40:23.261Z,74292
2015-09-30T00:40:35.761Z,74287
2015-09-30T00:40:48.183Z,74291
2015-09-30T00:41:00.605Z,74291
2015-09-30T00:41:13.029Z,74292
2015-09-30T00:41:25.451Z,74288
2015-09-30T00:41:37.841Z,74292
2015-09-30T00:41:50.232Z,74299
2015-09-30T00:42:02.641Z,74287
2015-09-30T00:42:15.032Z,74283
2015-09-30T00:42:27.438Z,74288
2015-09-30T00:42:39.829Z,74285
2015-09-30T00:42:52.219Z,74295
2015-09-30T00:43:04.613Z,74285
2015-09-30T00:43:17.019Z,74288
2015-09-30T00:43:29.425Z,74292
2015-09-30T00:43:41.832Z,74292
2015-09-30T00:43:54.253Z,74286
2015-09-30T00:44:06.694Z,74287
2015-09-30T00:44:19.116Z,74293
2015-09-30T00:44:31.553Z,74291
2015-09-30T00:44:43.991Z,74287
2015-09-30T00:44:56.381Z,74289
2015-09-30T00:45:08.071Z,74289
2015-09-30T00:45:20.462Z,74297
2015-09-30T00:45:32.868Z,74288
2015-09-30T00:45:45.258Z,74294
2015-09-30T00:45:57.665Z,74294
2015-09-30T00:46:10.058Z,74290
2015-09-30T00:46:22.449Z,74294
2015-09-30T00:46:34.699Z,74283
2015-09-30T00:46:47.090Z,74285
2015-09-30T00:46:59.511Z,74287
2015-09-30T00:47:11.920Z,74292
2015-09-30T00:47:24.342Z,74290
2015-09-30T00:47:36.748Z,74291
2015-09-30T00:47:49.138Z,74288
2015-09-30T00:48:01.545Z,74292
2015-09-30T00:48:13.955Z,74286
2015-09-30T00:48:26.346Z,74284
2015-09-30T00:48:38.721Z,74289
2015-09-30T00:48:51.142Z,74287
2015-09-30T00:49:03.549Z,74287
2015-09-30T00:49:15.957Z,74287
2015-09-30T00:49:28.363Z,74286
2015-09-30T00:49:40.769Z,74282
2015-09-30T00:49:53.191Z,74285
2015-09-30T00:50:05.613Z,74288
2015-09-30T00:50:18.038Z,74282
2015-09-30T00:50:30.460Z,74288
2015-09-30T00:50:42.866Z,74290
2015-09-30T00:50:55.257Z,74281
2015-09-30T00:51:07.647Z,74281
2015-09-30T00:51:20.057Z,74286
2015-09-30T00:51:32.463Z,74288
2015-09-30T00:51:44.869Z,74287
2015-09-30T00:51:56.557Z,74287
2015-09-30T00:52:08.947Z,74287
2015-09-30T00:52:21.341Z,74285
2015-09-30T00:52:33.747Z,74284
2015-09-30T00:52:46.153Z,74283
2015-09-30T00:52:58.560Z,74284
2015-09-30T00:53:10.997Z,74291
2015-09-30T00:53:23.405Z,74288
2015-09-30T00:53:35.812Z,74288
2015-09-30T00:53:48.202Z,74288
2015-09-30T00:54:00.609Z,74281
2015-09-30T00:54:12.999Z,74283
2015-09-30T00:54:25.393Z,74276
2015-09-30T00:54:37.799Z,74284
2015-09-30T00:54:50.205Z,74288
2015-09-30T00:55:02.612Z,74290
2015-09-30T00:55:15.033Z,74288
2015-09-30T00:55:27.490Z,74284
2015-09-30T00:55:39.949Z,74290
2015-09-30T00:55:52.199Z,74289
2015-09-30T00:56:04.589Z,74292
2015-09-30T00:56:16.855Z,74291
2015-09-30T00:56:29.280Z,74288
2015-09-30T00:56:41.873Z,74287
2015-09-30T00:56:54.264Z,74284
2015-09-30T00:57:06.670Z,74282
2015-09-30T00:57:19.092Z,74283
2015-09-30T00:57:31.485Z,74284
2015-09-30T00:57:43.891Z,74291
2015-09-30T00:57:56.329Z,74292
2015-09-30T00:58:08.735Z,74287
2015-09-30T00:58:21.157Z,74285
2015-09-30T00:58:33.597Z,74288
2015-09-30T00:58:46.035Z,74292
2015-09-30T00:58:58.425Z,74290
2015-09-30T00:59:10.832Z,74290
2015-09-30T00:59:23.238Z,74286
2015-09-30T00:59:35.647Z,74285
2015-09-30T00:59:48.022Z,74285
2015-09-30T01:00:00.428Z,74285
2015-09-30T01:00:12.835Z,74286
2015-09-30T01:00:25.228Z,74288
2015-09-30T01:00:37.650Z,74286
2015-09-30T01:00:50.041Z,74286
2015-09-30T01:01:02.463Z,74281
2015-09-30T01:01:14.869Z,74284
2015-09-30T01:01:26.574Z,74293
2015-09-30T01:01:38.996Z,74287
2015-09-30T01:01:50.699Z,74285
2015-09-30T01:02:03.121Z,74286
2015-09-30T01:02:15.543Z,74291
2015-09-30T01:02:27.952Z,74295
2015-09-30T01:02:40.343Z,74293
2015-09-30T01:02:52.733Z,74284
2015-09-30T01:03:05.139Z,74287
2015-09-30T01:03:17.546Z,74289
2015-09-30T01:03:29.938Z,74291
2015-09-30T01:03:42.313Z,74294
2015-09-30T01:03:54.704Z,74290
2015-09-30T01:04:07.079Z,74289
2015-09-30T01:04:19.470Z,74287
2015-09-30T01:04:31.879Z,74290
2015-09-30T01:04:44.301Z,74293
2015-09-30T01:04:56.723Z,74290
2015-09-30T01:05:09.144Z,74289
2015-09-30T01:05:21.566Z,74290
2015-09-30T01:05:34.007Z,74291
2015-09-30T01:05:46.413Z,74285
2015-09-30T01:05:58.804Z,74289
2015-09-30T01:06:11.194Z,74290
2015-09-30T01:06:23.585Z,74288
2015-09-30T01:06:35.994Z,74287
2015-09-30T01:06:48.385Z,74284
2015-09-30T01:07:00.791Z,74286
2015-09-30T01:07:13.197Z,74289
2015-09-30T01:07:25.588Z,74288
2015-09-30T01:07:37.997Z,74284
2015-09-30T01:07:50.419Z,74288
2015-09-30T01:08:02.825Z,74290
2015-09-30T01:08:14.544Z,74286
2015-09-30T01:08:26.966Z,74289
2015-09-30T01:08:39.390Z,74289
2015-09-30T01:08:51.812Z,74288
2015-09-30T01:09:04.218Z,74292
2015-09-30T01:09:16.624Z,74289
2015-09-30T01:09:28.859Z,74287
2015-09-30T01:09:41.252Z,74286
2015-09-30T01:09:53.658Z,74288
2015-09-30T01:10:06.049Z,74284
2015-09-30T01:10:18.455Z,74286
2015-09-30T01:10:30.846Z,74284
2015-09-30T01:10:42.552Z,74285
2015-09-30T01:10:54.943Z,74287
2015-09-30T01:11:07.349Z,74288
2015-09-30T01:11:19.755Z,74286
2015-09-30T01:11:32.177Z,74286
2015-09-30T01:11:44.602Z,74290
2015-09-30T01:11:57.039Z,74289
2015-09-30T01:12:09.461Z,74287
2015-09-30T01:12:21.883Z,74291
2015-09-30T01:12:34.289Z,74292
2015-09-30T01:12:46.683Z,74287
2015-09-30T01:12:59.074Z,74289
2015-09-30T01:13:11.480Z,74283
2015-09-30T01:13:23.871Z,74288
2015-09-30T01:13:36.263Z,74286
2015-09-30T01:13:48.669Z,74289
2015-09-30T01:14:01.091Z,74287
2015-09-30T01:14:13.482Z,74286
2015-09-30T01:14:25.904Z,74285
2015-09-30T01:14:38.312Z,74286
2015-09-30T01:14:50.734Z,74287
2015-09-30T01:15:03.156Z,74286
2015-09-30T01:15:15.578Z,74286
2015-09-30T01:15:28.000Z,74288
2015-09-30T01:15:40.394Z,74288
2015-09-30T01:15:52.800Z,74288
2015-09-30T01:16:05.191Z,74288
2015-09-30T01:16:17.582Z,74289
2015-09-30T01:16:29.972Z,74284
2015-09-30T01:16:42.365Z,74282
2015-09-30T01:16:54.756Z,74284
2015-09-30T01:17:07.146Z,74286
2015-09-30T01:17:19.552Z,74280
2015-09-30T01:17:31.959Z,74285
2015-09-30T01:17:44.368Z,74285
2015-09-30T01:17:56.790Z,74288
2015-09-30T01:18:09.212Z,74284
2015-09-30T01:18:21.665Z,74288
2015-09-30T01:18:34.071Z,74286
2015-09-30T01:18:46.465Z,74282
2015-09-30T01:18:58.855Z,74285
2015-09-30T01:19:11.262Z,74284
2015-09-30T01:19:23.652Z,74287
2015-09-30T01:19:36.058Z,74285
2015-09-30T01:19:48.451Z,74280
2015-09-30T01:20:00.857Z,74283
2015-09-30T01:20:13.264Z,74283
2015-09-30T01:20:25.670Z,74280
2015-09-30T01:20:38.076Z,74286
2015-09-30T01:20:50.501Z,74287
2015-09-30T01:21:02.938Z,74286
2015-09-30T01:21:15.360Z,74286
2015-09-30T01:21:27.798Z,74282
2015-09-30T01:21:40.220Z,74283
2015-09-30T01:21:52.660Z,74283
2015-09-30T01:22:05.066Z,74285
2015-09-30T01:22:17.473Z,74283
2015-09-30T01:22:29.863Z,74280
2015-09-30T01:22:42.254Z,74283
2015-09-30T01:22:54.647Z,74285
2015-09-30T01:23:07.053Z,74278
2015-09-30T01:23:19.459Z,74282
2015-09-30T01:23:31.850Z,74279
2015-09-30T01:23:44.256Z,74286
2015-09-30T01:23:56.666Z,74281
2015-09-30T01:24:09.072Z,74282
2015-09-30T01:24:21.494Z,74278
2015-09-30T01:24:33.932Z,74284
2015-09-30T01:24:46.369Z,74281
2015-09-30T01:24:58.793Z,74280
2015-09-30T01:25:11.184Z,74276
2015-09-30T01:25:23.606Z,74279
2015-09-30T01:25:35.996Z,74281
2015-09-30T01:25:48.403Z,74283
2015-09-30T01:26:00.796Z,74282
2015-09-30T01:26:13.202Z,74283
2015-09-30T01:26:25.593Z,74286
2015-09-30T01:26:37.999Z,74281
2015-09-30T01:26:50.423Z,74283
2015-09-30T01:27:02.673Z,74273
2015-09-30T01:27:15.079Z,74278
2015-09-30T01:27:27.501Z,74283
2015-09-30T01:27:39.923Z,74280
2015-09-30T01:27:52.364Z,74276
2015-09-30T01:28:04.801Z,74280
2015-09-30T01:28:17.239Z,74282
2015-09-30T01:28:29.645Z,74286
2015-09-30T01:28:42.036Z,74282
2015-09-30T01:28:54.445Z,74278
2015-09-30T01:29:06.835Z,74279
2015-09-30T01:29:19.226Z,74279
2015-09-30T01:29:31.632Z,74275
2015-09-30T01:29:44.039Z,74273
2015-09-30T01:29:56.432Z,74277
2015-09-30T01:30:08.854Z,74274
2015-09-30T01:30:21.245Z,74276
2015-09-30T01:30:33.667Z,74274
2015-09-30T01:30:46.073Z,74273
2015-09-30T01:30:58.497Z,74277
2015-09-30T01:31:10.934Z,74269
2015-09-30T01:31:23.387Z,74273
2015-09-30T01:31:35.778Z,74277
2015-09-30T01:31:48.169Z,74273
2015-09-30T01:32:00.578Z,74273
2015-09-30T01:32:12.968Z,74279
2015-09-30T01:32:25.359Z,74276
2015-09-30T01:32:37.765Z,74268
2015-09-30T01:32:50.156Z,74275
2015-09-30T01:33:02.565Z,74280
2015-09-30T01:33:14.971Z,74267
2015-09-30T01:33:27.378Z,74277
2015-09-30T01:33:39.065Z,74267
2015-09-30T01:33:51.487Z,74275
2015-09-30T01:34:03.193Z,74266
2015-09-30T01:34:15.615Z,74262
2015-09-30T01:34:28.053Z,74263
2015-09-30T01:34:40.474Z,74276
2015-09-30T01:34:52.865Z,74268
2015-09-30T01:35:05.259Z,74269
2015-09-30T01:35:17.649Z,74262
2015-09-30T01:35:30.040Z,74270
2015-09-30T01:35:42.431Z,74268
2015-09-30T01:35:54.837Z,74269
2015-09-30T01:36:07.230Z,74273
2015-09-30T01:36:19.621Z,74270
2015-09-30T01:36:32.043Z,74269
2015-09-30T01:36:44.449Z,74269
2015-09-30T01:36:56.871Z,74266
2015-09-30T01:37:09.295Z,74273
2015-09-30T01:37:21.717Z,74270
2015-09-30T01:37:34.139Z,74273
2015-09-30T01:37:46.576Z,74267
2015-09-30T01:37:58.982Z,74270
2015-09-30T01:38:11.376Z,74265
2015-09-30T01:38:23.782Z,74270
2015-09-30T01:38:36.173Z,74266
2015-09-30T01:38:48.564Z,74272
2015-09-30T01:39:00.954Z,74265
2015-09-30T01:39:13.363Z,74265
2015-09-30T01:39:25.754Z,74265
2015-09-30T01:39:38.145Z,74263
2015-09-30T01:39:50.551Z,74265
2015-09-30T01:40:02.973Z,74267
2015-09-30T01:40:15.240Z,74265
2015-09-30T01:40:27.662Z,74265
2015-09-30T01:40:40.084Z,74257
2015-09-30T01:40:52.506Z,74264
2015-09-30T01:41:04.944Z,74263
2015-09-30T01:41:17.337Z,74261
2015-09-30T01:41:29.743Z,74270
2015-09-30T01:41:42.134Z,74263
2015-09-30T01:41:54.540Z,74264
2015-09-30T01:42:06.931Z,74268
2015-09-30T01:42:19.325Z,74261
2015-09-30T01:42:31.715Z,74264
2015-09-30T01:42:44.090Z,74263
2015-09-30T01:42:56.481Z,74259
2015-09-30T01:43:08.871Z,74261
2015-09-30T01:43:21.280Z,74259
2015-09-30T01:43:33.686Z,74259
2015-09-30T01:43:46.108Z,74263
2015-09-30T01:43:58.530Z,74259
2015-09-30T01:44:10.952Z,74263
2015-09-30T01:44:23.392Z,74260
2015-09-30T01:44:35.830Z,74254
2015-09-30T01:44:48.220Z,74264
2015-09-30T01:45:00.626Z,74264
2015-09-30T01:45:13.020Z,74261
2015-09-30T01:45:25.411Z,74263
2015-09-30T01:45:37.801Z,74257
2015-09-30T01:45:50.208Z,74255
2015-09-30T01:46:02.598Z,74260
2015-09-30T01:46:14.992Z,74260
2015-09-30T01:46:27.398Z,74267
2015-09-30T01:46:39.820Z,74266
2015-09-30T01:46:52.226Z,74262
2015-09-30T01:47:04.632Z,74262
2015-09-30T01:47:17.056Z,74259
2015-09-30T01:47:29.463Z,74259
2015-09-30T01:47:41.853Z,74263
2015-09-30T01:47:54.259Z,74263
2015-09-30T01:48:06.650Z,74262
2015-09-30T01:48:19.044Z,74260
2015-09-30T01:48:31.466Z,74257
2015-09-30T01:48:43.872Z,74254
2015-09-30T01:48:56.262Z,74265
2015-09-30T01:49:08.653Z,74249
2015-09-30T01:49:21.062Z,74255
2015-09-30T01:49:33.469Z,74260
2015-09-30T01:49:45.875Z,74262
2015-09-30T01:49:58.297Z,74259
2015-09-30T01:50:10.719Z,74259
2015-09-30T01:50:23.142Z,74259
2015-09-30T01:50:35.580Z,74258
2015-09-30T01:50:47.986Z,74257
2015-09-30T01:51:00.392Z,74251
2015-09-30T01:51:12.783Z,74256
2015-09-30T01:51:25.193Z,74257
2015-09-30T01:51:37.584Z,74261
2015-09-30T01:51:49.975Z,74255
2015-09-30T01:52:02.365Z,74258
2015-09-30T01:52:14.771Z,74261
2015-09-30T01:52:27.164Z,74259
2015-09-30T01:52:39.570Z,74256
2015-09-30T01:52:51.977Z,74256
2015-09-30T01:53:04.383Z,74258
2015-09-30T01:53:16.805Z,74261
2015-09-30T01:53:29.230Z,74259
2015-09-30T01:53:41.651Z,74259
2015-09-30T01:53:54.073Z,74256
2015-09-30T01:54:06.495Z,74256
2015-09-30T01:54:18.917Z,74259
2015-09-30T01:54:31.311Z,74261
2015-09-30T01:54:43.701Z,74259
2015-09-30T01:54:56.092Z,74256
2015-09-30T01:55:08.483Z,74263
2015-09-30T01:55:20.889Z,74257
2015-09-30T01:55:33.282Z,74260
2015-09-30T01:55:45.673Z,74260
2015-09-30T01:55:58.079Z,74259
2015-09-30T01:56:10.486Z,74255
2015-09-30T01:56:22.892Z,74255
2015-09-30T01:56:35.316Z,74254
2015-09-30T01:56:47.738Z,74264
2015-09-30T01:57:00.003Z,74256
2015-09-30T01:57:12.441Z,74258
2015-09-30T01:57:24.691Z,74256
2015-09-30T01:57:37.084Z,74257
2015-09-30T01:57:49.491Z,74265
2015-09-30T01:58:01.881Z,74268
2015-09-30T01:58:14.303Z,74264
2015-09-30T01:58:26.694Z,74264
2015-09-30T01:58:39.087Z,74268
2015-09-30T01:58:51.494Z,74263
2015-09-30T01:59:03.884Z,74258
2015-09-30T01:59:16.290Z,74264
2015-09-30T01:59:28.697Z,74258
2015-09-30T01:59:41.121Z,74266
2015-09-30T01:59:53.542Z,74263
2015-09-30T02:00:05.964Z,74260
2015-09-30T02:00:18.402Z,74267
2015-09-30T02:00:30.808Z,74256
2015-09-30T02:00:43.202Z,74258
2015-09-30T02:00:55.592Z,74261
2015-09-30T02:01:07.983Z,74263
2015-09-30T02:01:20.374Z,74258
2015-09-30T02:01:32.764Z,74256
2015-09-30T02:01:45.173Z,74254
2015-09-30T02:01:56.861Z,74255
2015-09-30T02:02:09.252Z,74255
2015-09-30T02:02:21.658Z,74251
2015-09-30T02:02:33.345Z,74255
2015-09-30T02:02:45.754Z,74255
2015-09-30T02:02:58.191Z,74261
2015-09-30T02:03:10.629Z,74253
2015-09-30T02:03:23.066Z,74253
2015-09-30T02:03:35.504Z,74263
2015-09-30T02:03:47.898Z,74263
2015-09-30T02:04:00.320Z,74264
2015-09-30T02:04:12.711Z,74266
2015-09-30T02:04:24.961Z,74264
2015-09-30T02:04:37.353Z,74262
2015-09-30T02:04:49.791Z,74257
2015-09-30T02:05:02.197Z,74255
2015-09-30T02:05:14.603Z,74248
2015-09-30T02:05:27.025Z,74249
2015-09-30T02:05:39.465Z,74262
2015-09-30T02:05:51.871Z,74250
2015-09-30T02:06:04.262Z,74258
2015-09-30T02:06:16.652Z,74256
2015-09-30T02:06:29.058Z,74259
2015-09-30T02:06:41.452Z,74256
2015-09-30T02:06:53.843Z,74256
2015-09-30T02:07:06.233Z,74254
2015-09-30T02:07:18.640Z,74250
2015-09-30T02:07:30.874Z,74253
2015-09-30T02:07:42.580Z,74254
2015-09-30T02:07:54.971Z,74257
2015-09-30T02:08:07.377Z,74258
2015-09-30T02:08:19.799Z,74255
2015-09-30T02:08:32.236Z,74263
2015-09-30T02:08:44.677Z,74251
2015-09-30T02:08:57.114Z,74253
2015-09-30T02:09:09.521Z,74253
2015-09-30T02:09:21.911Z,74253
2015-09-30T02:09:34.317Z,74256
2015-09-30T02:09:46.570Z,74256
2015-09-30T02:09:58.961Z,74263
2015-09-30T02:10:11.352Z,74253
2015-09-30T02:10:23.758Z,74260
2015-09-30T02:10:36.164Z,74258
2015-09-30T02:10:48.558Z,74256
2015-09-30T02:11:00.964Z,74259
2015-09-30T02:11:13.370Z,74255
2015-09-30T02:11:25.777Z,74262
2015-09-30T02:11:38.198Z,74258
2015-09-30T02:11:50.622Z,74260
2015-09-30T02:12:03.044Z,74258
2015-09-30T02:12:15.482Z,74264
2015-09-30T02:12:27.904Z,74260
2015-09-30T02:12:40.294Z,74257
2015-09-30T02:12:52.703Z,74254
2015-09-30T02:13:05.110Z,74254
2015-09-30T02:13:17.500Z,74255
2015-09-30T02:13:29.891Z,74258
2015-09-30T02:13:42.282Z,74259
2015-09-30T02:13:54.674Z,74262
2015-09-30T02:14:07.080Z,74262
2015-09-30T02:14:19.487Z,74260
2015-09-30T02:14:31.893Z,74259
2015-09-30T02:14:44.302Z,74263
2015-09-30T02:14:56.740Z,74258
2015-09-30T02:15:09.162Z,74260
2015-09-30T02:15:21.615Z,74261
2015-09-30T02:15:34.037Z,74260
2015-09-30T02:15:46.446Z,74253
2015-09-30T02:15:58.836Z,74262
2015-09-30T02:16:11.227Z,74262
2015-09-30T02:16:23.665Z,74256
2015-09-30T02:16:36.055Z,74255
2015-09-30T02:16:48.449Z,74256
2015-09-30T02:17:00.839Z,74257
2015-09-30T02:17:13.230Z,74264
2015-09-30T02:17:25.621Z,74256
2015-09-30T02:17:38.043Z,74256
2015-09-30T02:17:50.452Z,74258
2015-09-30T02:18:02.858Z,74261
2015-09-30T02:18:15.280Z,74264
2015-09-30T02:18:27.702Z,74266
2015-09-30T02:18:40.139Z,74261
2015-09-30T02:18:52.580Z,74262
2015-09-30T02:19:05.002Z,74258
2015-09-30T02:19:17.392Z,74260
2015-09-30T02:19:29.783Z,74261
2015-09-30T02:19:42.174Z,74261
2015-09-30T02:19:54.582Z,74256
2015-09-30T02:20:06.972Z,74252
2015-09-30T02:20:19.363Z,74258
2015-09-30T02:20:31.754Z,74261
2015-09-30T02:20:44.144Z,74258
2015-09-30T02:20:56.553Z,74253
2015-09-30T02:21:08.943Z,74256
2015-09-30T02:21:21.349Z,74260
2015-09-30T02:21:33.599Z,74260
2015-09-30T02:21:46.021Z,74257
2015-09-30T02:21:58.416Z,74253
2015-09-30T02:22:10.807Z,74260
2015-09-30T02:22:23.197Z,74261
2015-09-30T02:22:35.603Z,74265
2015-09-30T02:22:47.994Z,74267
2015-09-30T02:23:00.402Z,74258
2015-09-30T02:23:12.793Z,74260
2015-09-30T02:23:25.184Z,74260
2015-09-30T02:23:37.590Z,74261
2015-09-30T02:23:49.277Z,74257
2015-09-30T02:24:01.688Z,74257
2015-09-30T02:24:14.109Z,74257
2015-09-30T02:24:26.531Z,74259
2015-09-30T02:24:38.953Z,74266
2015-09-30T02:24:51.391Z,74258
2015-09-30T02:25:03.815Z,74266
2015-09-30T02:25:16.236Z,74262
2015-09-30T02:25:28.627Z,74262
2015-09-30T02:25:41.033Z,74262
2015-09-30T02:25:53.424Z,74262
2015-09-30T02:26:05.113Z,74258
2015-09-30T02:26:16.801Z,74254
2015-09-30T02:26:29.207Z,74258
2015-09-30T02:26:41.598Z,74261
2015-09-30T02:26:53.285Z,74258
2015-09-30T02:27:05.711Z,74265
2015-09-30T02:27:18.117Z,74260
2015-09-30T02:27:30.524Z,74256
2015-09-30T02:27:42.946Z,74261
2015-09-30T02:27:55.367Z,74261
2015-09-30T02:28:07.823Z,74255
2015-09-30T02:28:20.244Z,74257
2015-09-30T02:28:32.651Z,74256
2015-09-30T02:28:45.041Z,74261
2015-09-30T02:28:57.448Z,74260
2015-09-30T02:29:09.826Z,74259
2015-09-30T02:29:22.232Z,74256
2015-09-30T02:29:34.622Z,74262
2015-09-30T02:29:47.013Z,74256
2015-09-30T02:29:59.419Z,74253
2015-09-30T02:30:11.844Z,74253
2015-09-30T02:30:23.547Z,74257
2015-09-30T02:30:35.969Z,74260
2015-09-30T02:30:48.391Z,74253
2015-09-30T02:31:00.813Z,74257
2015-09-30T02:31:13.206Z,74256
2015-09-30T02:31:25.612Z,74259
2015-09-30T02:31:38.002Z,74255
2015-09-30T02:31:50.393Z,74254
2015-09-30T02:32:02.784Z,74262
2015-09-30T02:32:15.177Z,74257
2015-09-30T02:32:27.615Z,74258
2015-09-30T02:32:40.021Z,74260
2015-09-30T02:32:52.427Z,74258
2015-09-30T02:33:04.865Z,74257
2015-09-30T02:33:17.273Z,74260
2015-09-30T02:33:29.679Z,74256
2015-09-30T02:33:42.070Z,74253
2015-09-30T02:33:54.476Z,74253
2015-09-30T02:34:06.851Z,74253
2015-09-30T02:34:19.246Z,74258
2015-09-30T02:34:31.652Z,74259
2015-09-30T02:34:44.043Z,74255
2015-09-30T02:34:56.433Z,74251
2015-09-30T02:35:08.855Z,74255
2015-09-30T02:35:21.248Z,74253
2015-09-30T02:35:33.654Z,74256
2015-09-30T02:35:46.076Z,74257
2015-09-30T02:35:57.795Z,74255
2015-09-30T02:36:10.217Z,74258
2015-09-30T02:36:22.641Z,74251
2015-09-30T02:36:35.048Z,74251
2015-09-30T02:36:47.438Z,74253
2015-09-30T02:36:59.110Z,74254
2015-09-30T02:37:11.501Z,74250
2015-09-30T02:37:23.894Z,74260
2015-09-30T02:37:36.301Z,74250
2015-09-30T02:37:48.707Z,74248
2015-09-30T02:38:01.098Z,74256
2015-09-30T02:38:13.519Z,74250
2015-09-30T02:38:25.928Z,74245
2015-09-30T02:38:38.334Z,74247
2015-09-30T02:38:50.740Z,74257
2015-09-30T02:39:03.178Z,74256
2015-09-30T02:39:15.584Z,74254